BIENTÔT MET'MAP
version 2.0 !

Prévue avant fin octobre,
la nouvelle version sera
plus belle, plus complète
et hébergée sur un serveur
3 fois plus puissant...
et toujours gratuite !


Pas compatible ?
Essayez la version Mobile !

SE CONNECTER : | S'inscrire | Disclaimer | Découvrir Orbifly |
Code OACI :

TAF - ETHE Rheine Bentlage Airport - 02 Jun 2020 08:11 UTC
Data Sources :     NOAA   


- Altitude de l'aérodrome : 129 ft
- Code IATA : ZPQ
- Pas de NOTAMs connus.


ETHE - Rheine Bentlage Airport

Dernier METAR connu : 2015/08/11 07:20 ETHE 110720Z 22002KT 9999 FEW180 BKN260 17/15 Q1018 BLU+
Prévision TAF périmée.

Source NOAA


MET'MAP, la Météo Aéronautique d'un coup d'oeil ! - Copyright ORBIFLY Décembre 2007

Développement & Programmation : Alexandra Zaïnal
Co-Développement : Marc-Olivier Méhu
Soutien technique & logistique : Manuel Goepfert
Conception & Financement : Baudouin d'Aumeries